Time;durP1;ratioP1;P1;durP2;ratioP2;P2;SDS_P1;SDS_P2;PMS_P1;PMS_P2;Temp;Humidity;BMP_temperature;BMP_pressure;BME280_temperature;BME280_humidity;BME280_pressure;Samples;Min_cycle;Max_cycle;Signal;HPM_P1;HPM_P2
2023/09/08 00:00:25;;;;;;;;;;;;;;;22.54;53.32;101792.47;4979591;28;6279;-75
2023/09/08 00:02:52;;;;;;;;;;;;;;;22.52;53.25;101783.72;4974006;28;2252;-73
2023/09/08 00:05:18;;;;;;;;;;;;;;;22.51;53.23;101778.56;4977975;28;2105;-74
2023/09/08 00:07:44;;;;;;;;;;;;;;;22.49;53.03;101782.09;4976339;28;2230;-74
2023/09/08 00:10:11;;;;;;;;;;;;;;;22.46;53.08;101774.72;4979039;28;2230;-74
2023/09/08 00:12:38;;;;;;;;;;;;;;;22.44;53.34;101771.72;4976837;28;2239;-74
2023/09/08 00:15:05;;;;;;;;;;;;;;;22.43;53.20;101776.00;4980082;28;2266;-74
2023/09/08 00:17:32;;;;;;;;;;;;;;;22.43;53.40;101776.00;4981163;28;2212;-74
2023/09/08 00:19:58;;;;;;;;;;;;;;;22.42;53.59;101773.75;4978248;28;2259;-74
2023/09/08 00:22:24;;;;;;;;;;;;;;;22.41;53.49;101778.78;4979901;28;2232;-74
2023/09/08 00:24:51;;;;;;;;;;;;;;;22.39;53.60;101775.78;4979093;28;2113;-74
2023/09/08 00:27:17;;;;;;;;;;;;;;;22.34;53.76;101776.97;4977550;28;2010;-74
2023/09/08 00:29:44;;;;;;;;;;;;;;;22.36;53.49;101771.31;4992062;28;1982;-74
2023/09/08 00:32:11;;;;;;;;;;;;;;;22.34;53.34;101774.84;4977844;28;6312;-74
2023/09/08 00:34:37;;;;;;;;;;;;;;;22.33;53.43;101766.81;4978917;28;2254;-74
2023/09/08 00:37:07;;;;;;;;;;;;;;;22.30;53.36;101768.84;4981304;28;2172;-74
2023/09/08 00:39:37;;;;;;;;;;;;;;;22.28;53.15;101765.84;4979702;28;1621;-74
2023/09/08 00:42:03;;;;;;;;;;;;;;;22.25;53.23;101764.25;4978400;28;1997;-73
2023/09/08 00:44:29;;;;;;;;;;;;;;;22.23;53.10;101757.63;4976593;28;2220;-74
2023/09/08 00:46:56;;;;;;;;;;;;;;;22.24;53.15;101764.88;4977546;28;2180;-74
2023/09/08 00:49:22;;;;;;;;;;;;;;;22.21;53.31;101763.25;4992036;28;2231;-74
2023/09/08 00:51:49;;;;;;;;;;;;;;;22.20;53.16;101764.66;4979318;28;1923;-74
2023/09/08 00:54:16;;;;;;;;;;;;;;;22.18;53.11;101768.19;4976754;28;2124;-73
2023/09/08 00:56:42;;;;;;;;;;;;;;;22.16;53.09;101765.94;4979292;28;2441;-74
2023/09/08 00:59:09;;;;;;;;;;;;;;;22.11;53.15;101764.22;4981712;28;2277;-74
2023/09/08 01:01:35;;;;;;;;;;;;;;;22.13;52.95;101764.34;4992129;28;7299;-74
2023/09/08 01:04:02;;;;;;;;;;;;;;;22.13;53.04;101761.44;4976610;28;2346;-74
2023/09/08 01:06:28;;;;;;;;;;;;;;;22.11;53.15;101757.72;4976596;28;2237;-74
2023/09/08 01:08:55;;;;;;;;;;;;;;;22.09;52.79;101757.59;4985311;28;2185;-74
2023/09/08 01:11:23;;;;;;;;;;;;;;;22.07;53.12;101757.47;4976908;28;2240;-74
2023/09/08 01:13:49;;;;;;;;;;;;;;;22.04;52.68;101753.75;4979522;28;2184;-74
2023/09/08 01:16:16;;;;;;;;;;;;;;;22.02;52.96;101750.75;4987425;28;2571;-74
2023/09/08 01:18:43;;;;;;;;;;;;;;;22.00;52.93;101750.63;4978433;28;2200;-74
2023/09/08 01:21:33;;;;;;;;;;;;;;;22.02;52.69;101756.53;4980000;28;2567;-74
2023/09/08 01:24:18;;;;;;;;;;;;;;;22.02;52.95;101761.53;4949676;28;2263;-74
2023/09/08 01:26:45;;;;;;;;;;;;;;;22.04;52.87;101759.50;4977024;28;2173;-74
2023/09/08 01:29:11;;;;;;;;;;;;;;;22.05;52.69;101755.22;4971858;28;2206;-74
2023/09/08 01:31:38;;;;;;;;;;;;;;;22.03;52.90;101752.22;4986627;28;6045;-73
2023/09/08 01:34:06;;;;;;;;;;;;;;;22.02;53.03;101750.00;4976953;28;2025;-74
2023/09/08 01:36:36;;;;;;;;;;;;;;;21.99;53.27;101746.28;4975084;28;2278;-74
2023/09/08 01:39:02;;;;;;;;;;;;;;;21.98;53.33;101750.53;4973271;28;2192;-74
2023/09/08 01:41:31;;;;;;;;;;;;;;;21.99;53.39;101751.28;4977294;28;2267;-74
2023/09/08 01:43:58;;;;;;;;;;;;;;;21.95;53.38;101740.28;4978089;28;2113;-74
2023/09/08 01:46:24;;;;;;;;;;;;;;;21.92;53.40;101747.31;4987529;28;2215;-74
2023/09/08 01:48:51;;;;;;;;;;;;;;;21.94;53.30;101744.53;4976846;28;2073;-74
2023/09/08 01:51:17;;;;;;;;;;;;;;;21.91;53.48;101737.91;4975020;28;2294;-74
2023/09/08 01:53:44;;;;;;;;;;;;;;;21.91;53.43;101737.16;4977801;28;2113;-74
2023/09/08 01:56:10;;;;;;;;;;;;;;;21.89;53.15;101737.06;4976895;28;2222;-73
2023/09/08 01:58:36;;;;;;;;;;;;;;;21.91;53.42;101740.06;4972798;28;2221;-75
2023/09/08 02:01:05;;;;;;;;;;;;;;;21.89;53.32;101725.53;4973878;28;6234;-74
2023/09/08 02:03:34;;;;;;;;;;;;;;;21.89;53.52;101720.50;4973193;28;2651;-74
2023/09/08 02:06:00;;;;;;;;;;;;;;;21.89;53.25;101725.53;4975495;28;2319;-74
2023/09/08 02:08:26;;;;;;;;;;;;;;;21.90;53.11;101722.00;4991144;28;2100;-74
2023/09/08 02:10:53;;;;;;;;;;;;;;;21.91;53.32;101728.53;4976528;28;2050;-74
2023/09/08 02:13:19;;;;;;;;;;;;;;;21.93;53.69;101731.50;4976001;28;2164;-74
2023/09/08 02:15:46;;;;;;;;;;;;;;;21.91;53.90;101723.50;4976960;28;2317;-74
2023/09/08 02:18:13;;;;;;;;;;;;;;;21.91;53.97;101722.75;4974528;28;2423;-74
2023/09/08 02:20:40;;;;;;;;;;;;;;;21.88;54.13;101718.28;4977757;28;2132;-74
2023/09/08 02:23:07;;;;;;;;;;;;;;;21.88;54.21;101724.78;4976101;28;2228;-74
2023/09/08 02:25:33;;;;;;;;;;;;;;;21.89;54.05;101716.88;4989781;28;2191;-74
2023/09/08 02:28:00;;;;;;;;;;;;;;;21.90;54.28;101724.16;4973813;28;2216;-74
2023/09/08 02:30:27;;;;;;;;;;;;;;;21.91;54.25;101716.97;4990608;28;6631;-74
2023/09/08 02:32:54;;;;;;;;;;;;;;;21.91;54.63;101714.09;4987324;28;2196;-73
2023/09/08 02:35:23;;;;;;;;;;;;;;;21.94;54.64;101721.47;4989903;28;2154;-74
2023/09/08 02:37:50;;;;;;;;;;;;;;;21.91;54.58;101719.88;4989910;28;2278;-74
2023/09/08 02:40:17;;;;;;;;;;;;;;;21.93;54.95;101720.72;4986617;28;2007;-75
2023/09/08 02:42:43;;;;;;;;;;;;;;;21.94;54.83;101712.81;4982429;28;1981;-74
2023/09/08 02:45:10;;;;;;;;;;;;;;;21.94;55.01;101710.69;4978934;28;2299;-74
2023/09/08 02:47:37;;;;;;;;;;;;;;;21.95;54.75;101720.09;4996095;28;2162;-74
2023/09/08 02:50:04;;;;;;;;;;;;;;;21.95;54.96;101715.06;4979414;28;2263;-74
2023/09/08 02:52:32;;;;;;;;;;;;;;;21.95;54.96;101706.41;4994863;28;2306;-74
2023/09/08 02:54:58;;;;;;;;;;;;;;;21.94;55.18;101702.03;4994786;28;2521;-75
2023/09/08 02:57:25;;;;;;;;;;;;;;;21.96;55.15;101707.16;4993448;28;2550;-75
2023/09/08 02:59:51;;;;;;;;;;;;;;;21.96;55.05;101707.16;4994377;28;2215;-75
2023/09/08 03:02:18;;;;;;;;;;;;;;;21.95;55.48;101711.44;4979805;28;6171;-75
2023/09/08 03:04:44;;;;;;;;;;;;;;;21.89;55.67;101708.22;4979188;28;2277;-75
2023/09/08 03:07:11;;;;;;;;;;;;;;;21.88;55.66;101701.72;4990694;28;2247;-74
2023/09/08 03:09:37;;;;;;;;;;;;;;;21.90;55.81;101703.97;4990535;28;2027;-74
2023/09/08 03:12:04;;;;;;;;;;;;;;;21.90;55.55;101698.19;4980363;28;2128;-74
2023/09/08 03:14:30;;;;;;;;;;;;;;;21.90;55.57;101701.09;4994243;28;2196;-74
2023/09/08 03:16:57;;;;;;;;;;;;;;;21.91;55.62;101696.78;4987345;28;2302;-75
2023/09/08 03:19:24;;;;;;;;;;;;;;;21.91;55.70;101693.91;4978823;28;2089;-75
2023/09/08 03:21:50;;;;;;;;;;;;;;;21.90;55.86;101693.19;4980401;28;2219;-74
2023/09/08 03:24:16;;;;;;;;;;;;;;;21.89;55.97;101693.81;4981019;28;2188;-75
2023/09/08 03:26:43;;;;;;;;;;;;;;;21.89;55.89;101697.44;4975306;28;2254;-75
2023/09/08 03:29:09;;;;;;;;;;;;;;;21.88;56.06;101695.22;4980105;28;2441;-75
2023/09/08 03:31:36;;;;;;;;;;;;;;;21.87;55.77;101699.47;4976811;28;6163;-75
2023/09/08 03:34:02;;;;;;;;;;;;;;;21.88;55.67;101700.97;4996196;28;1672;-76
2023/09/08 03:36:30;;;;;;;;;;;;;;;21.78;56.28;101692.50;4974321;28;2272;-75
2023/09/08 03:38:58;;;;;;;;;;;;;;;21.65;57.00;101688.22;4977076;28;2278;-75
2023/09/08 03:41:24;;;;;;;;;;;;;;;21.73;57.20;101703.06;4984164;28;2640;-75
2023/09/08 03:43:51;;;;;;;;;;;;;;;21.74;56.72;101703.84;4988372;28;2208;-75
2023/09/08 03:46:17;;;;;;;;;;;;;;;21.73;57.03;101703.06;4977357;28;2188;-75
2023/09/08 03:48:44;;;;;;;;;;;;;;;21.70;56.84;101703.63;4979394;28;1823;-75
2023/09/08 03:51:10;;;;;;;;;;;;;;;21.59;57.30;101708.06;4979285;28;2168;-75
2023/09/08 03:53:36;;;;;;;;;;;;;;;21.62;56.97;101709.66;4988365;28;2240;-73
2023/09/08 03:56:03;;;;;;;;;;;;;;;21.62;56.67;101703.91;4974800;28;2203;-75
2023/09/08 03:58:30;;;;;;;;;;;;;;;21.59;56.45;101699.41;4978933;28;2406;-85
2023/09/08 04:00:57;;;;;;;;;;;;;;;21.58;56.48;101703.69;4988865;28;6898;-66
2023/09/08 04:03:23;;;;;;;;;;;;;;;21.55;56.39;101702.06;4978687;28;2029;-66
2023/09/08 04:05:50;;;;;;;;;;;;;;;21.51;56.33;101702.63;4992961;28;2041;-66
2023/09/08 04:08:17;;;;;;;;;;;;;;;21.51;56.52;101704.75;4978665;28;2181;-66
2023/09/08 04:10:44;;;;;;;;;;;;;;;21.51;56.58;101704.75;4983909;28;1775;-66
2023/09/08 04:13:10;;;;;;;;;;;;;;;21.47;56.35;101699.50;4975771;28;2409;-66
2023/09/08 04:15:37;;;;;;;;;;;;;;;21.48;56.29;101700.25;4977499;28;2271;-66
2023/09/08 04:18:03;;;;;;;;;;;;;;;21.47;56.11;101701.66;4991365;28;1975;-66
2023/09/08 04:20:30;;;;;;;;;;;;;;;21.46;56.32;101703.00;4979324;28;1787;-66
2023/09/08 04:22:56;;;;;;;;;;;;;;;21.41;56.10;101707.06;4976469;28;2381;-66
2023/09/08 04:25:22;;;;;;;;;;;;;;;21.43;56.46;101701.41;4982133;28;2165;-66
2023/09/08 04:27:49;;;;;;;;;;;;;;;21.42;56.32;101705.69;4977989;28;2240;-66
2023/09/08 04:30:15;;;;;;;;;;;;;;;21.41;56.15;101707.06;4988866;28;6062;-66
2023/09/08 04:32:43;;;;;;;;;;;;;;;21.42;56.13;101708.56;4972580;28;2277;-66
2023/09/08 04:35:10;;;;;;;;;;;;;;;21.37;56.57;101703.91;4978500;28;2259;-66
2023/09/08 04:37:36;;;;;;;;;;;;;;;21.37;56.41;101706.81;4993283;28;2286;-66
2023/09/08 04:40:04;;;;;;;;;;;;;;;21.33;56.61;101702.31;4976479;28;2421;-66
2023/09/08 04:42:31;;;;;;;;;;;;;;;21.31;56.31;101705.09;4989413;28;2243;-66
2023/09/08 04:44:59;;;;;;;;;;;;;;;21.33;56.37;101705.19;4991440;28;2338;-66
2023/09/08 04:47:26;;;;;;;;;;;;;;;21.33;56.17;101710.97;4988470;28;2370;-67
2023/09/08 04:49:53;;;;;;;;;;;;;;;21.31;56.43;101699.31;4989537;28;2254;-66
2023/09/08 04:52:19;;;;;;;;;;;;;;;21.28;56.55;101706.38;4975095;28;2493;-66
2023/09/08 04:54:46;;;;;;;;;;;;;;;21.28;56.47;101706.38;4988913;28;2226;-66
2023/09/08 04:57:13;;;;;;;;;;;;;;;21.28;56.49;101712.13;4984984;28;2251;-66
2023/09/08 04:59:51;;;;;;;;;;;;;;;21.30;56.66;101706.47;4972021;28;2264;-66
2023/09/08 05:02:18;;;;;;;;;;;;;;;21.33;56.76;101702.31;4982357;28;6096;-66
2023/09/08 05:04:45;;;;;;;;;;;;;;;21.28;56.70;101706.38;4970574;28;2301;-66
2023/09/08 05:07:13;;;;;;;;;;;;;;;21.29;56.86;101701.34;4975386;28;2256;-66
2023/09/08 05:09:39;;;;;;;;;;;;;;;21.30;57.12;101709.38;4972792;28;2225;-66
2023/09/08 05:12:06;;;;;;;;;;;;;;;21.27;57.15;101709.88;4974411;28;2090;-64
2023/09/08 05:14:34;;;;;;;;;;;;;;;21.28;57.29;101703.50;4988714;28;2492;-66
2023/09/08 05:17:00;;;;;;;;;;;;;;;21.28;57.38;101711.34;4971271;28;2201;-66
2023/09/08 05:19:28;;;;;;;;;;;;;;;21.28;57.42;101709.25;4989267;28;2268;-66
2023/09/08 05:21:55;;;;;;;;;;;;;;;21.29;57.58;101704.97;4973565;28;2261;-66
2023/09/08 05:24:22;;;;;;;;;;;;;;;21.30;57.38;101700.72;4975290;28;2137;-66
2023/09/08 05:26:49;;;;;;;;;;;;;;;21.31;57.55;101699.31;4974720;28;1973;-66
2023/09/08 05:29:15;;;;;;;;;;;;;;;21.33;57.80;101695.81;4975045;28;2180;-66
2023/09/08 05:31:43;;;;;;;;;;;;;;;21.36;57.65;101702.44;4983326;28;6654;-66
2023/09/08 05:34:10;;;;;;;;;;;;;;;21.37;57.71;101701.03;4987345;28;2621;-67
2023/09/08 05:36:38;;;;;;;;;;;;;;;21.38;57.97;101697.53;4988704;28;2104;-66
2023/09/08 05:39:05;;;;;;;;;;;;;;;21.40;58.09;101702.66;4975917;28;2215;-67
2023/09/08 05:41:33;;;;;;;;;;;;;;;21.42;58.14;101706.44;4972774;28;2142;-67
2023/09/08 05:44:01;;;;;;;;;;;;;;;21.42;58.24;101705.69;4971245;28;2292;-67
2023/09/08 05:46:27;;;;;;;;;;;;;;;21.47;58.31;101705.28;4987598;28;2228;-67
2023/09/08 05:48:54;;;;;;;;;;;;;;;21.48;58.20;101711.78;4975739;28;2281;-66
2023/09/08 05:51:20;;;;;;;;;;;;;;;21.50;58.01;101703.25;4993395;28;2040;-66
2023/09/08 05:53:47;;;;;;;;;;;;;;;21.44;58.55;101700.03;4977906;28;2270;-67
2023/09/08 05:56:13;;;;;;;;;;;;;;;21.05;60.23;101718.75;4992236;28;4155;-67
2023/09/08 05:58:41;;;;;;;;;;;;;;;20.94;60.43;101708.03;4978105;28;2192;-66
2023/09/08 06:01:08;;;;;;;;;;;;;;;21.07;60.25;101713.13;4987490;28;6325;-69
2023/09/08 06:03:35;;;;;;;;;;;;;;;21.17;60.18;101707.19;4993464;28;2247;-67
2023/09/08 06:06:01;;;;;;;;;;;;;;;21.19;59.93;101706.53;4980682;28;2002;-67
2023/09/08 06:08:28;;;;;;;;;;;;;;;21.17;60.29;101717.97;4978205;28;2455;-67
2023/09/08 06:10:55;;;;;;;;;;;;;;;21.17;60.35;101724.47;4987821;28;2155;-66
2023/09/08 06:13:21;;;;;;;;;;;;;;;21.36;59.67;101711.09;4972246;28;2232;-66
2023/09/08 06:15:48;;;;;;;;;;;;;;;21.50;59.04;101709.00;4974909;28;2270;-66
2023/09/08 06:18:15;;;;;;;;;;;;;;;21.60;58.86;101711.69;4995089;28;2417;-65
2023/09/08 06:20:45;;;;;;;;;;;;;;;21.65;58.58;101707.66;4981750;28;1573;-65
2023/09/08 06:23:12;;;;;;;;;;;;;;;21.69;58.43;101704.97;4979503;28;1720;-65
2023/09/08 06:25:39;;;;;;;;;;;;;;;21.70;58.62;101710.13;4991056;28;2184;-65
2023/09/08 06:28:05;;;;;;;;;;;;;;;21.73;58.37;101705.22;4980879;28;1671;-65
2023/09/08 06:30:32;;;;;;;;;;;;;;;21.74;58.19;101710.34;4979471;28;6292;-66
2023/09/08 06:32:59;;;;;;;;;;;;;;;21.75;58.30;101705.31;4995646;28;1821;-65
2023/09/08 06:35:27;;;;;;;;;;;;;;;21.78;57.71;101709.06;4981215;28;1651;-65
2023/09/08 06:37:53;;;;;;;;;;;;;;;21.79;58.09;101710.56;4995236;28;2160;-66
2023/09/08 06:40:19;;;;;;;;;;;;;;;21.81;57.66;101713.56;4980814;28;2101;-65
2023/09/08 06:42:46;;;;;;;;;;;;;;;21.84;57.76;101712.28;4982945;28;2101;-65
2023/09/08 06:45:23;;;;;;;;;;;;;;;21.86;57.75;101710.25;4979827;28;2158;-65
2023/09/08 06:47:54;;;;;;;;;;;;;;;21.88;57.80;101712.50;4980300;28;1943;-66
2023/09/08 06:50:21;;;;;;;;;;;;;;;21.89;57.66;101711.09;4979437;28;1807;-65
2023/09/08 06:52:49;;;;;;;;;;;;;;;21.91;57.53;101711.22;4979222;28;2241;-65
2023/09/08 06:55:16;;;;;;;;;;;;;;;21.91;57.45;101705.44;4995722;28;1828;-65
2023/09/08 06:57:43;;;;;;;;;;;;;;;21.93;57.46;101714.22;4980146;28;1651;-66
2023/09/08 07:00:11;;;;;;;;;;;;;;;21.94;57.54;101712.81;4988454;28;6265;-66
2023/09/08 07:02:38;;;;;;;;;;;;;;;21.93;57.67;101709.19;4979452;28;2296;-66
2023/09/08 07:05:08;;;;;;;;;;;;;;;21.94;57.56;101710.69;4992358;28;1651;-65
2023/09/08 07:07:35;;;;;;;;;;;;;;;21.92;57.90;101712.69;4992996;28;2495;-66
2023/09/08 07:10:04;;;;;;;;;;;;;;;21.83;58.06;101716.53;4979729;28;2065;-69
2023/09/08 07:12:31;;;;;;;;;;;;;;;21.87;58.02;101716.75;4984791;28;2167;-67
2023/09/08 07:14:59;;;;;;;;;;;;;;;21.81;58.47;101719.34;4979159;28;2212;-67
2023/09/08 07:17:26;;;;;;;;;;;;;;;21.87;58.62;101711.00;4986103;28;1805;-67
2023/09/08 07:19:53;;;;;;;;;;;;;;;21.92;59.18;101712.69;4997208;28;2041;-73
2023/09/08 07:22:20;;;;;;;;;;;;;;;22.07;59.41;101717.09;4978037;28;1623;-73
2023/09/08 07:24:47;;;;;;;;;;;;;;;21.87;60.53;101714.63;4994331;28;2150;-72
2023/09/08 07:27:15;;;;;;;;;;;;;;;22.09;60.44;101714.34;4978168;28;2335;-71
2023/09/08 07:29:42;;;;;;;;;;;;;;;22.10;60.64;101721.59;4986619;28;2176;-73
2023/09/08 07:32:09;;;;;;;;;;;;;;;22.27;59.74;101717.47;4988188;28;6071;-73
2023/09/08 07:34:35;;;;;;;;;;;;;;;21.97;59.70;101717.31;4981489;28;2235;-79
2023/09/08 07:37:01;;;;;;;;;;;;;;;21.90;60.21;101716.25;4992608;28;2236;-77
2023/09/08 07:39:28;;;;;;;;;;;;;;;21.96;59.83;101724.47;4977353;28;2214;-76
2023/09/08 07:41:56;;;;;;;;;;;;;;;21.80;60.56;101717.81;4976076;28;2567;-82
2023/09/08 07:44:26;;;;;;;;;;;;;;;22.00;59.58;101730.44;4977945;28;2307;-82
2023/09/08 07:46:55;;;;;;;;;;;;;;;22.09;59.40;101726.59;4991925;28;2227;-82
2023/09/08 07:49:21;;;;;;;;;;;;;;;22.10;59.08;101721.59;4975215;28;2497;-81
2023/09/08 07:51:48;;;;;;;;;;;;;;;22.10;59.36;101733.13;4994166;28;1839;-82
2023/09/08 07:54:14;;;;;;;;;;;;;;;22.11;59.19;101735.38;4992340;28;1620;-82
2023/09/08 07:56:40;;;;;;;;;;;;;;;22.13;59.17;101728.97;4977570;28;2129;-82
2023/09/08 07:59:07;;;;;;;;;;;;;;;22.13;59.57;101731.84;4971386;28;2204;-81
2023/09/08 08:01:33;;;;;;;;;;;;;;;22.15;59.32;101729.81;4976223;28;7376;-82
2023/09/08 08:04:03;;;;;;;;;;;;;;;22.20;59.05;101730.78;4975554;28;2121;-82
2023/09/08 08:06:29;;;;;;;;;;;;;;;22.16;58.88;101728.44;4977070;28;2228;-81
2023/09/08 08:08:56;;;;;;;;;;;;;;;22.21;58.68;101725.75;4975027;28;2148;-82
2023/09/08 08:11:25;;;;;;;;;;;;;;;22.22;58.49;101727.28;4975813;28;2252;-81
2023/09/08 08:13:51;;;;;;;;;;;;;;;22.26;58.85;101724.59;4975622;28;2252;-81
2023/09/08 08:16:20;;;;;;;;;;;;;;;22.27;59.12;101723.97;4975889;28;2172;-81
2023/09/08 08:18:47;;;;;;;;;;;;;;;22.19;59.75;101729.28;4973209;28;2766;-77
2023/09/08 08:21:13;;;;;;;;;;;;;;;22.26;59.96;101724.59;4975675;28;2025;-76
2023/09/08 08:23:40;;;;;;;;;;;;;;;22.27;59.76;101718.19;4976468;28;1965;-77
2023/09/08 08:26:06;;;;;;;;;;;;;;;22.29;59.70;101708.91;4978723;28;1910;-77
2023/09/08 08:28:33;;;;;;;;;;;;;;;22.31;60.52;101715.53;4977268;28;2240;-77
2023/09/08 08:31:00;;;;;;;;;;;;;;;22.39;59.92;101712.31;4975844;28;6178;-75
2023/09/08 08:33:26;;;;;;;;;;;;;;;22.69;59.14;101704.44;4985500;28;2425;-74
2023/09/08 08:35:53;;;;;;;;;;;;;;;22.78;59.39;101711.38;4980652;28;1657;-80
2023/09/08 08:38:19;;;;;;;;;;;;;;;22.95;58.49;101713.69;4983039;28;2278;-77
2023/09/08 08:40:45;;;;;;;;;;;;;;;23.19;57.65;101704.72;4979837;28;1858;-77
2023/09/08 08:43:12;;;;;;;;;;;;;;;23.19;57.22;101707.63;4980094;28;1622;-79
2023/09/08 08:45:39;;;;;;;;;;;;;;;22.88;58.14;101711.13;4980061;28;1854;-78
2023/09/08 08:48:05;;;;;;;;;;;;;;;23.10;57.49;101714.41;4985975;28;2020;-80
2023/09/08 08:50:32;;;;;;;;;;;;;;;23.20;57.85;101706.22;5000642;28;1831;-80
2023/09/08 08:52:58;;;;;;;;;;;;;;;23.20;57.49;101714.88;4997523;28;1805;-73
2023/09/08 08:55:25;;;;;;;;;;;;;;;23.36;56.73;101704.09;4981633;28;1804;-81
2023/09/08 08:57:51;;;;;;;;;;;;;;;23.35;56.30;101704.75;4988937;28;1604;-80
2023/09/08 09:00:18;;;;;;;;;;;;;;;23.38;56.22;101706.34;4979571;28;6206;-80
2023/09/08 09:02:45;;;;;;;;;;;;;;;23.55;55.82;101702.09;4975092;28;2306;-77
2023/09/08 09:05:24;;;;;;;;;;;;;;;23.64;56.37;101692.38;4983913;28;2301;-76
2023/09/08 09:07:51;;;;;;;;;;;;;;;23.66;55.79;101692.47;4981317;28;2170;-75
2023/09/08 09:10:17;;;;;;;;;;;;;;;23.71;55.61;101694.16;4979796;28;2545;-74
2023/09/08 09:12:44;;;;;;;;;;;;;;;23.71;55.85;101694.16;4982531;28;2281;-74
2023/09/08 09:15:11;;;;;;;;;;;;;;;23.77;56.01;101685.78;4982164;28;1592;-74
2023/09/08 09:17:38;;;;;;;;;;;;;;;23.78;55.25;101683.66;4981536;28;2207;-74
2023/09/08 09:20:15;;;;;;;;;;;;;;;23.80;55.37;101692.38;4980738;28;1612;-74
2023/09/08 09:22:42;;;;;;;;;;;;;;;23.56;55.45;101697.78;4979264;28;2185;-79
2023/09/08 09:25:10;;;;;;;;;;;;;;;23.30;56.14;101703.81;4978998;28;1788;-81
2023/09/08 09:27:38;;;;;;;;;;;;;;;23.29;56.74;101696.53;4981418;28;1946;-84
2023/09/08 09:30:05;;;;;;;;;;;;;;;23.61;56.16;101696.56;4981388;28;1831;-78
2023/09/08 09:32:31;;;;;;;;;;;;;;;23.78;55.60;101690.16;4997595;28;8354;-77
2023/09/08 09:35:00;;;;;;;;;;;;;;;23.92;55.55;101684.28;4980815;28;1799;-78
2023/09/08 09:37:29;;;;;;;;;;;;;;;23.97;55.58;101688.09;4979186;28;1601;-73
2023/09/08 09:39:55;;;;;;;;;;;;;;;24.03;55.72;101694.91;4978505;28;1624;-75
2023/09/08 09:42:22;;;;;;;;;;;;;;;23.97;55.62;101688.84;4979596;28;1952;-74
2023/09/08 09:44:52;;;;;;;;;;;;;;;23.79;55.46;101685.88;4993644;28;1883;-82
2023/09/08 09:47:19;;;;;;;;;;;;;;;23.77;55.67;101677.09;4986026;28;1902;-83
2023/09/08 09:49:45;;;;;;;;;;;;;;;23.87;55.84;101681.84;4980079;28;1662;-74
2023/09/08 09:52:15;;;;;;;;;;;;;;;23.84;55.76;101681.00;4979510;28;1633;-73
2023/09/08 09:54:41;;;;;;;;;;;;;;;23.73;56.07;101682.69;4977589;28;1811;-72
2023/09/08 09:57:11;;;;;;;;;;;;;;;23.85;55.83;101684.66;4979000;28;2231;-71
2023/09/08 09:59:37;;;;;;;;;;;;;;;23.96;55.69;101680.81;4979574;28;2205;-69
2023/09/08 10:02:05;;;;;;;;;;;;;;;24.04;55.15;101675.38;4978890;28;6431;-79
2023/09/08 10:04:31;;;;;;;;;;;;;;;24.02;55.49;101673.13;4984410;28;1797;-79
2023/09/08 10:06:58;;;;;;;;;;;;;;;24.12;55.27;101669.97;4980015;28;2133;-77
2023/09/08 10:09:24;;;;;;;;;;;;;;;24.17;54.93;101660.06;4978612;28;1819;-79
2023/09/08 10:11:51;;;;;;;;;;;;;;;24.19;54.65;101660.16;4972734;28;2318;-78
2023/09/08 10:14:18;;;;;;;;;;;;;;;24.06;54.72;101666.81;4978626;28;2512;-80
2023/09/08 10:16:45;;;;;;;;;;;;;;;23.95;55.17;101665.59;4976065;28;2397;-82
2023/09/08 10:19:11;;;;;;;;;;;;;;;23.97;55.24;101664.94;4974172;28;2435;-81
2023/09/08 10:21:39;;;;;;;;;;;;;;;23.96;55.21;101660.56;4973487;28;2304;-78
2023/09/08 10:24:15;;;;;;;;;;;;;;;24.05;54.97;101656.63;4971164;28;2871;-80
2023/09/08 10:26:43;;;;;;;;;;;;;;;24.17;54.86;101653.53;4973045;28;2373;-78
2023/09/08 10:29:09;;;;;;;;;;;;;;;24.45;54.47;101651.84;4972029;28;2741;-84
2023/09/08 10:31:36;;;;;;;;;;;;;;;24.50;54.54;101644.09;4973826;28;6401;-75
2023/09/08 10:34:02;;;;;;;;;;;;;;;24.46;53.42;101643.88;4975495;28;2309;-76
2023/09/08 10:36:29;;;;;;;;;;;;;;;24.34;53.47;101643.38;4971916;28;2241;-75
2023/09/08 10:39:15;;;;;;;;;;;;;;;24.09;53.87;101645.22;4971966;28;2375;-77
2023/09/08 10:41:42;;;;;;;;;;;;;;;24.06;54.23;101643.66;4977823;28;1881;-79
2023/09/08 10:44:08;;;;;;;;;;;;;;;24.05;54.07;101639.25;4975567;28;2293;-82
2023/09/08 10:46:35;;;;;;;;;;;;;;;24.05;54.52;101650.81;4977073;28;2783;-86
2023/09/08 10:49:03;;;;;;;;;;;;;;;24.06;54.18;101637.88;4978626;28;2568;-87
2023/09/08 10:51:29;;;;;;;;;;;;;;;24.13;54.03;101641.78;4976647;28;2317;-82
2023/09/08 10:53:57;;;;;;;;;;;;;;;24.23;54.36;101637.19;4973157;28;2252;-78
2023/09/08 10:56:26;;;;;;;;;;;;;;;24.31;54.01;101638.91;4974801;28;2650;-75
2023/09/08 10:58:53;;;;;;;;;;;;;;;24.09;54.11;101645.22;4974416;28;2286;-74
2023/09/08 11:01:26;;;;;;;;;;;;;;;23.90;54.46;101640.06;4980655;28;6281;-75
2023/09/08 11:03:53;;;;;;;;;;;;;;;23.77;55.07;101635.88;4972502;28;2336;-75
2023/09/08 11:06:23;;;;;;;;;;;;;;;23.73;55.03;101636.41;4977832;28;2477;-75
2023/09/08 11:08:52;;;;;;;;;;;;;;;23.68;55.51;101631.09;4974998;28;2352;-77
2023/09/08 11:11:19;;;;;;;;;;;;;;;24.04;55.00;101634.88;4975858;28;2779;-76
2023/09/08 11:13:46;;;;;;;;;;;;;;;24.29;53.89;101635.94;4984474;28;2332;-88
2023/09/08 11:16:14;;;;;;;;;;;;;;;24.30;54.20;101637.41;4985605;28;2289;-88
2023/09/08 11:18:42;;;;;;;;;;;;;;;24.32;54.14;101640.41;4982339;28;2523;-77
2023/09/08 11:21:08;;;;;;;;;;;;;;;24.23;54.02;101634.28;4982800;28;1585;-82
2023/09/08 11:23:35;;;;;;;;;;;;;;;24.39;54.00;101631.31;4987252;28;2241;-86
2023/09/08 11:26:01;;;;;;;;;;;;;;;24.34;53.61;101632.53;4980344;28;2296;-85
2023/09/08 11:28:28;;;;;;;;;;;;;;;24.34;53.58;101631.81;4984325;28;2048;-85
2023/09/08 11:30:55;;;;;;;;;;;;;;;24.38;53.77;101626.19;4982541;28;6209;-76
2023/09/08 11:33:25;;;;;;;;;;;;;;;24.42;53.62;101632.16;4979169;28;2288;-76
2023/09/08 11:35:52;;;;;;;;;;;;;;;24.39;53.22;101621.88;4976001;28;2396;-76
2023/09/08 11:38:25;;;;;;;;;;;;;;;24.39;53.29;101621.88;4980590;28;2212;-77
2023/09/08 11:40:52;;;;;;;;;;;;;;;24.39;53.32;101624.78;4979506;28;2600;-76
2023/09/08 11:43:19;;;;;;;;;;;;;;;24.52;52.90;101611.59;4976713;28;2309;-76
2023/09/08 11:45:45;;;;;;;;;;;;;;;24.58;53.04;101615.47;4979150;28;2462;-77
2023/09/08 11:48:13;;;;;;;;;;;;;;;24.76;52.26;101617.59;4982719;28;2163;-92
2023/09/08 11:50:40;;;;;;;;;;;;;;;24.78;52.78;101609.00;4961933;28;2420;-86
2023/09/08 11:53:10;;;;;;;;;;;;;;;24.79;52.72;101604.72;4980040;28;2481;-84
2023/09/08 11:55:36;;;;;;;;;;;;;;;24.78;52.89;101614.81;4975932;28;2317;-88
2023/09/08 11:58:03;;;;;;;;;;;;;;;24.78;52.56;101603.94;4981426;28;2564;-87
2023/09/08 12:00:30;;;;;;;;;;;;;;;24.84;52.38;101597.66;4980690;28;6168;-88
2023/09/08 12:02:58;;;;;;;;;;;;;;;24.80;52.03;101594.59;4984126;28;2560;-83
2023/09/08 12:05:25;;;;;;;;;;;;;;;24.75;52.36;101593.69;4976973;28;2584;-82
2023/09/08 12:07:52;;;;;;;;;;;;;;;24.68;51.93;101583.28;4976192;28;2458;-80
2023/09/08 12:10:18;;;;;;;;;;;;;;;24.47;51.81;101581.72;4981691;28;2342;-78
2023/09/08 12:12:49;;;;;;;;;;;;;;;24.56;52.15;101586.44;4980273;28;2630;-77
2023/09/08 12:15:32;;;;;;;;;;;;;;;24.61;51.86;101585.19;4979848;28;2338;-80
2023/09/08 12:17:58;;;;;;;;;;;;;;;24.71;51.59;101581.22;4978040;28;2438;-74
2023/09/08 12:20:25;;;;;;;;;;;;;;;24.88;51.13;101577.56;4992196;28;2308;-74
2023/09/08 12:22:51;;;;;;;;;;;;;;;24.81;51.30;101575.84;4978798;28;2643;-74
2023/09/08 12:25:18;;;;;;;;;;;;;;;24.86;50.87;101574.56;4979427;28;2227;-74
2023/09/08 12:27:44;;;;;;;;;;;;;;;24.90;50.64;101583.44;4979302;28;2116;-74
2023/09/08 12:30:15;;;;;;;;;;;;;;;24.92;50.93;101571.91;4976879;28;6185;-75
2023/09/08 12:32:41;;;;;;;;;;;;;;;24.92;51.24;101569.00;4975355;28;2183;-75
2023/09/08 12:35:08;;;;;;;;;;;;;;;24.88;50.95;101574.66;4974878;28;2581;-81
2023/09/08 12:37:35;;;;;;;;;;;;;;;24.96;50.88;101577.84;4995507;28;2234;-80
2023/09/08 12:40:01;;;;;;;;;;;;;;;24.90;51.06;101563.16;4978046;28;2539;-78
2023/09/08 12:42:29;;;;;;;;;;;;;;;24.84;51.21;101560.75;4980060;28;2049;-80
2023/09/08 12:44:57;;;;;;;;;;;;;;;25.06;51.15;101554.34;4976709;28;2302;-82
2023/09/08 12:47:23;;;;;;;;;;;;;;;25.02;51.19;101562.88;4977597;28;2222;-83